This is the latest recevied weather packets stored in our database for station/object EA7RX-3. If no packets are shown the sender has not sent any weather packets the latest 10 day(s).
| Time | Temp. | Humidity | Pressure | Rain* | Wind** | Luminosity | Snow |
|---|---|---|---|---|---|---|---|
| 1777652902 | 25.56° C | 46% | 1012.7 hPa | - | - | - | - |
| 1777652302 | 25.56° C | 46% | 1012.7 hPa | - | - | - | - |
| 1777651700 | 25.56° C | 46% | 1012.9 hPa | - | - | - | - |
| 1777651100 | 25.56° C | 47% | 1012.8 hPa | - | - | - | - |
| 1777649900 | 25.56° C | 47% | 1012.9 hPa | - | - | - | - |
| 1777649302 | 25° C | 47% | 1013.1 hPa | - | - | - | - |
| 1777648702 | 24.44° C | 50% | 1013.4 hPa | - | - | - | - |
| 1777648100 | 24.44° C | 49% | 1013.6 hPa | - | - | - | - |
| 1777647502 | 23.89° C | 50% | 1013.8 hPa | - | - | - | - |
| 1777646902 | 25° C | 49% | 1013.6 hPa | - | - | - | - |
| 1777646300 | 23.89° C | 50% | 1014 hPa | - | - | - | - |
| 1777645700 | 24.44° C | 50% | 1013.8 hPa | - | - | - | - |
| 1777645102 | 23.89° C | 51% | 1014.2 hPa | - | - | - | - |
| 1777644502 | 23.89° C | 54% | 1014.3 hPa | - | - | - | - |
| 1777643900 | 23.89° C | 52% | 1014.3 hPa | - | - | - | - |
| 1777643300 | 23.89° C | 53% | 1014.4 hPa | - | - | - | - |
| 1777642702 | 23.89° C | 55% | 1014.5 hPa | - | - | - | - |
| 1777642100 | 23.33° C | 55% | 1014.5 hPa | - | - | - | - |
| 1777641500 | 23.33° C | 55% | 1014.5 hPa | - | - | - | - |
| 1777640900 | 23.33° C | 56% | 1014.7 hPa | - | - | - | - |
| 1777639100 | 22.78° C | 56% | 1014.8 hPa | - | - | - | - |
| 1777638502 | 22.22° C | 59% | 1015 hPa | - | - | - | - |
| 1777637902 | 22.22° C | 58% | 1015 hPa | - | - | - | - |
| 1777637302 | 22.22° C | 55% | 1015 hPa | - | - | - | - |
| 1777636702 | 21.67° C | 61% | 1015.2 hPa | - | - | - | - |
* Rain since midnight (hover to see other rain measurements)
** Current wind speed in m/s (hover to see current wind gust speed)